createdAt,value
2022-10-26T00:02:39.669Z,73.19
2022-10-26T00:05:21.939Z,73.40
2022-10-26T00:08:10.638Z,73.35
2022-10-26T00:10:52.812Z,73.65
2022-10-26T00:13:41.542Z,73.71
2022-10-26T00:16:35.514Z,73.80
2022-10-26T00:19:18.057Z,73.75
2022-10-26T00:22:06.607Z,73.88
2022-10-26T00:24:55.666Z,73.79
2022-10-26T00:27:37.858Z,74.11
2022-10-26T00:30:26.704Z,74.63
2022-10-26T00:33:17.937Z,74.10
2022-10-26T00:36:03.623Z,74.41
2022-10-26T00:38:53.864Z,74.58
2022-10-26T00:41:45.529Z,75.25
2022-10-26T00:44:45.924Z,74.41
2022-10-26T00:48:01.537Z,74.00
2022-10-26T00:50:54.933Z,73.98
2022-10-26T00:53:38.539Z,74.11
2022-10-26T00:56:27.941Z,74.15
2022-10-26T00:59:14.615Z,73.81
2022-10-26T01:02:11.554Z,74.05
2022-10-26T01:04:55.065Z,73.50
2022-10-26T01:07:43.621Z,73.75
2022-10-26T01:10:28.379Z,73.43
2022-10-26T01:13:18.543Z,73.21
2022-10-26T01:16:20.960Z,73.77
2022-10-26T01:19:14.636Z,73.72
2022-10-26T01:22:08.098Z,73.19
2022-10-26T01:25:33.539Z,73.13
2022-10-26T01:29:14.688Z,72.98
2022-10-26T01:32:13.932Z,73.07
2022-10-26T01:35:21.654Z,72.81
2022-10-26T01:38:32.916Z,72.99
2022-10-26T01:41:41.723Z,73.87
2022-10-26T01:44:33.935Z,73.09
2022-10-26T01:47:25.555Z,73.06
2022-10-26T01:50:10.944Z,73.25
2022-10-26T01:53:00.646Z,73.68
2022-10-26T01:56:02.083Z,73.30
2022-10-26T01:59:20.614Z,72.99
2022-10-26T02:02:34.630Z,73.37
2022-10-26T02:05:47.912Z,73.01
2022-10-26T02:08:54.552Z,72.94
2022-10-26T02:12:07.595Z,73.50
2022-10-26T02:15:12.903Z,72.30
2022-10-26T02:18:06.610Z,72.01
2022-10-26T02:20:55.575Z,72.32
2022-10-26T02:23:47.625Z,72.17
2022-10-26T02:26:31.949Z,71.71
2022-10-26T02:29:24.635Z,72.06
2022-10-26T02:32:15.899Z,72.15
2022-10-26T02:35:00.646Z,71.90
2022-10-26T02:37:48.723Z,71.86
2022-10-26T02:40:41.625Z,71.48
2022-10-26T02:43:39.621Z,70.41
2022-10-26T02:46:31.912Z,70.28
2022-10-26T02:49:14.625Z,70.31
2022-10-26T02:52:17.893Z,69.40
2022-10-26T02:55:08.627Z,69.41
2022-10-26T02:57:56.357Z,69.99
2022-10-26T03:00:46.642Z,70.46
2022-10-26T03:03:28.881Z,69.71
2022-10-26T03:06:17.636Z,70.21
2022-10-26T03:09:06.664Z,69.78
2022-10-26T03:11:50.876Z,70.09
2022-10-26T03:14:39.622Z,70.27
2022-10-26T03:17:21.905Z,68.86
2022-10-26T03:20:10.664Z,69.61
2022-10-26T03:22:58.037Z,68.05
2022-10-26T03:25:46.647Z,65.33
2022-10-26T03:28:29.063Z,64.17
2022-10-26T03:31:17.630Z,61.26
2022-10-26T03:34:00.104Z,63.84
2022-10-26T03:36:48.622Z,60.39
2022-10-26T03:39:37.623Z,59.68
2022-10-26T03:42:25.873Z,59.94
2022-10-26T03:45:08.641Z,57.59
2022-10-26T03:47:58.599Z,61.19
2022-10-26T03:50:47.607Z,58.40
2022-10-26T03:53:29.825Z,58.87
2022-10-26T03:56:18.606Z,56.94
2022-10-26T03:59:13.640Z,55.82
2022-10-26T04:01:57.806Z,54.28
2022-10-26T04:04:46.615Z,52.72
2022-10-26T04:07:42.486Z,50.49
2022-10-26T04:10:32.622Z,50.28
2022-10-26T04:13:21.602Z,50.16
2022-10-26T04:16:03.817Z,48.66
2022-10-26T04:18:53.659Z,48.45
2022-10-26T04:21:43.623Z,46.12
2022-10-26T04:24:25.926Z,47.30
2022-10-26T04:27:14.622Z,45.57
2022-10-26T04:29:56.888Z,46.98
2022-10-26T04:32:45.829Z,48.77
2022-10-26T04:35:27.898Z,45.11
2022-10-26T04:38:17.625Z,43.90
2022-10-26T04:40:59.958Z,47.35
2022-10-26T04:43:48.632Z,44.06
2022-10-26T04:46:37.608Z,44.61
2022-10-26T04:49:26.611Z,40.62
2022-10-26T04:52:15.622Z,43.78
2022-10-26T04:55:04.592Z,45.38
2022-10-26T04:57:47.503Z,41.79
2022-10-26T05:00:37.522Z,38.79
2022-10-26T05:03:26.627Z,45.00
2022-10-26T05:06:15.604Z,42.77
2022-10-26T05:09:10.505Z,44.07
2022-10-26T05:11:59.613Z,42.99
2022-10-26T05:14:48.605Z,45.96
2022-10-26T05:17:37.614Z,39.80
2022-10-26T05:20:19.903Z,41.72
2022-10-26T05:23:20.642Z,42.56
2022-10-26T05:26:03.934Z,40.69
2022-10-26T05:28:52.617Z,41.63
2022-10-26T05:31:34.890Z,37.39
2022-10-26T05:34:23.512Z,42.00
2022-10-26T05:37:12.664Z,40.24
2022-10-26T05:40:02.031Z,39.08
2022-10-26T05:42:44.616Z,39.52
2022-10-26T05:45:33.528Z,39.71
2022-10-26T05:48:22.637Z,39.06
2022-10-26T05:51:11.799Z,39.13
2022-10-26T05:53:54.622Z,40.76
2022-10-26T05:56:43.088Z,38.21
2022-10-26T05:59:32.659Z,38.17
2022-10-26T06:02:40.622Z,39.53
2022-10-26T06:05:40.645Z,40.01
2022-10-26T06:08:38.498Z,40.61
2022-10-26T06:11:27.648Z,38.93
2022-10-26T06:14:10.901Z,39.71
2022-10-26T06:17:12.606Z,41.41
2022-10-26T06:20:28.532Z,39.77
2022-10-26T06:23:40.627Z,40.18
2022-10-26T06:27:06.585Z,37.97
2022-10-26T06:30:10.529Z,35.02
2022-10-26T06:33:06.038Z,34.86
2022-10-26T06:36:16.609Z,38.18
2022-10-26T06:39:15.078Z,34.63
2022-10-26T06:42:05.807Z,37.42
2022-10-26T06:44:47.876Z,34.01
2022-10-26T06:48:11.621Z,34.50
2022-10-26T06:51:07.512Z,35.95
2022-10-26T06:54:29.626Z,38.27
2022-10-26T06:57:18.517Z,34.83
2022-10-26T07:00:10.614Z,34.19
2022-10-26T07:02:53.586Z,33.45
2022-10-26T07:05:43.660Z,32.81
2022-10-26T07:08:32.909Z,35.84
2022-10-26T07:11:16.658Z,35.48
2022-10-26T07:13:58.822Z,34.40
2022-10-26T07:16:47.654Z,36.72
2022-10-26T07:19:29.974Z,34.51
2022-10-26T07:22:18.602Z,33.58
2022-10-26T07:25:03.012Z,33.81
2022-10-26T07:27:52.695Z,37.64
2022-10-26T07:30:41.933Z,33.91
2022-10-26T07:33:24.634Z,34.12
2022-10-26T07:36:13.884Z,35.51
2022-10-26T07:38:58.810Z,33.98
2022-10-26T07:41:47.166Z,33.34
2022-10-26T07:44:28.597Z,32.97
2022-10-26T07:47:17.605Z,33.23
2022-10-26T07:49:59.897Z,33.21
2022-10-26T07:52:49.749Z,32.25
2022-10-26T07:55:31.877Z,33.85
2022-10-26T07:58:20.647Z,33.77
2022-10-26T08:01:04.038Z,33.54
2022-10-26T08:03:52.515Z,33.83
2022-10-26T08:06:34.866Z,35.02
2022-10-26T08:09:23.490Z,32.94
2022-10-26T08:12:05.877Z,33.92
2022-10-26T08:14:54.495Z,33.78
2022-10-26T08:17:37.865Z,33.13
2022-10-26T08:20:26.677Z,33.00
2022-10-26T08:23:09.683Z,32.24
2022-10-26T08:25:58.636Z,33.03
2022-10-26T08:28:47.683Z,33.73
2022-10-26T08:31:36.908Z,32.88
2022-10-26T08:34:18.527Z,33.99
2022-10-26T08:37:06.925Z,33.37
2022-10-26T08:39:50.593Z,33.58
2022-10-26T08:42:42.013Z,33.79
2022-10-26T08:45:37.251Z,35.19
2022-10-26T08:48:31.603Z,35.70
2022-10-26T08:51:38.895Z,34.32
2022-10-26T08:54:48.588Z,33.79
2022-10-26T08:57:48.856Z,34.64
2022-10-26T09:00:31.895Z,36.66
2022-10-26T09:03:28.596Z,34.87
2022-10-26T09:06:13.645Z,36.09
2022-10-26T09:09:09.523Z,33.98
2022-10-26T09:12:17.615Z,34.48
2022-10-26T09:15:25.502Z,35.62
2022-10-26T09:18:35.939Z,34.36
2022-10-26T09:21:49.496Z,36.47
2022-10-26T09:24:44.517Z,36.60
2022-10-26T09:27:36.880Z,36.09
2022-10-26T09:30:28.541Z,35.79
2022-10-26T09:33:28.621Z,35.30
2022-10-26T09:36:38.556Z,34.89
2022-10-26T09:39:39.604Z,37.05
2022-10-26T09:42:53.477Z,36.73
2022-10-26T09:46:10.620Z,36.24
2022-10-26T09:49:13.592Z,33.47
2022-10-26T09:51:56.884Z,34.73
2022-10-26T09:54:45.521Z,37.55
2022-10-26T09:57:28.881Z,37.92
2022-10-26T10:00:29.886Z,44.60
2022-10-26T10:03:26.919Z,42.69
2022-10-26T10:06:27.603Z,39.28
2022-10-26T10:09:17.964Z,39.88
2022-10-26T10:12:10.682Z,37.86
2022-10-26T10:15:06.068Z,39.29
2022-10-26T10:18:03.673Z,39.30
2022-10-26T10:20:46.891Z,38.34
2022-10-26T10:23:41.661Z,39.47
2022-10-26T10:26:23.900Z,39.51
2022-10-26T10:29:24.655Z,37.89
2022-10-26T10:32:12.215Z,39.90
2022-10-26T10:35:03.571Z,42.40
2022-10-26T10:37:58.524Z,41.95
2022-10-26T10:40:47.595Z,41.89
2022-10-26T10:43:30.891Z,42.73
2022-10-26T10:46:27.638Z,43.79
2022-10-26T10:49:13.874Z,42.35
2022-10-26T10:52:04.594Z,46.75
2022-10-26T10:54:47.893Z,43.50
2022-10-26T10:58:09.512Z,44.03
2022-10-26T11:00:55.874Z,44.26
2022-10-26T11:03:51.503Z,45.09
2022-10-26T11:06:36.853Z,44.83
2022-10-26T11:09:30.600Z,44.99
2022-10-26T11:15:34.493Z,45.79
2022-10-26T11:18:43.624Z,45.26
2022-10-26T11:21:39.555Z,46.16
2022-10-26T11:24:31.495Z,46.43
2022-10-26T11:27:27.577Z,47.92
2022-10-26T11:30:30.602Z,48.73
2022-10-26T11:33:27.548Z,48.39
2022-10-26T11:36:34.490Z,49.07
2022-10-26T11:40:03.661Z,49.63
2022-10-26T11:42:52.424Z,48.90
2022-10-26T11:45:53.682Z,51.42
2022-10-26T11:48:56.137Z,51.17
2022-10-26T11:51:47.505Z,53.88
2022-10-26T11:54:41.882Z,53.12
2022-10-26T11:57:32.578Z,52.08
2022-10-26T12:00:28.610Z,53.61
2022-10-26T12:03:25.029Z,52.70
2022-10-26T12:06:07.466Z,54.34
2022-10-26T12:09:28.528Z,53.86
2022-10-26T12:12:31.626Z,52.63
2022-10-26T12:16:01.708Z,55.38
2022-10-26T12:18:59.498Z,54.75
2022-10-26T12:21:49.586Z,53.28
2022-10-26T12:24:40.353Z,54.27
2022-10-26T12:27:59.575Z,53.58
2022-10-26T12:30:41.829Z,54.07
2022-10-26T12:33:44.635Z,55.08
2022-10-26T12:37:03.915Z,55.01
2022-10-26T12:39:48.605Z,54.70
2022-10-26T12:42:32.153Z,54.87
2022-10-26T12:45:33.603Z,54.79
2022-10-26T12:48:49.872Z,54.40
2022-10-26T12:51:49.622Z,53.29
2022-10-26T12:54:45.940Z,54.19
2022-10-26T12:57:53.593Z,55.28
2022-10-26T13:00:47.879Z,55.78
2022-10-26T13:03:48.579Z,55.74
2022-10-26T13:06:56.495Z,55.17
2022-10-26T13:09:52.488Z,57.02
2022-10-26T13:12:57.859Z,57.59
2022-10-26T13:15:46.555Z,57.65
2022-10-26T13:18:37.590Z,57.27
2022-10-26T13:21:22.912Z,57.43
2022-10-26T13:24:17.484Z,56.68
2022-10-26T13:27:21.590Z,57.70
2022-10-26T13:30:12.572Z,59.15
2022-10-26T13:33:05.278Z,57.67
2022-10-26T13:35:54.494Z,58.63
2022-10-26T13:38:41.991Z,58.59
2022-10-26T13:41:52.562Z,58.61
2022-10-26T13:44:41.865Z,58.09
2022-10-26T13:47:57.574Z,58.88
2022-10-26T13:51:42.489Z,59.58
2022-10-26T13:54:35.837Z,59.76
2022-10-26T13:57:42.486Z,60.01
2022-10-26T14:00:31.901Z,60.63
2022-10-26T14:03:30.587Z,60.96
2022-10-26T14:06:50.507Z,60.94
2022-10-26T14:09:40.940Z,61.32
2022-10-26T14:12:30.156Z,60.94
2022-10-26T14:15:16.585Z,60.32
2022-10-26T14:18:01.267Z,60.41
2022-10-26T14:20:50.628Z,60.26
2022-10-26T14:23:58.260Z,60.64
2022-10-26T14:26:56.561Z,61.31
2022-10-26T14:30:03.629Z,61.37
2022-10-26T14:32:49.197Z,61.91
2022-10-26T14:35:43.587Z,62.42
2022-10-26T14:38:33.856Z,61.35
2022-10-26T14:41:25.592Z,62.30
2022-10-26T14:44:08.880Z,62.17
2022-10-26T14:46:57.649Z,61.40
2022-10-26T14:49:39.892Z,61.80
2022-10-26T14:52:46.589Z,62.24
2022-10-26T14:55:30.019Z,62.06
2022-10-26T14:58:44.613Z,62.53
2022-10-26T15:01:41.075Z,64.18
2022-10-26T15:04:45.581Z,64.65
2022-10-26T15:07:27.995Z,64.13
2022-10-26T15:10:48.521Z,64.30
2022-10-26T15:13:47.561Z,64.34
2022-10-26T15:16:35.623Z,62.97
2022-10-26T15:19:33.504Z,62.49
2022-10-26T15:22:34.878Z,62.63
2022-10-26T15:25:28.645Z,63.31
2022-10-26T15:28:17.874Z,62.70
2022-10-26T15:31:18.570Z,63.93
2022-10-26T15:34:03.788Z,64.32
2022-10-26T15:36:53.611Z,64.20
2022-10-26T15:39:36.600Z,64.03
2022-10-26T15:42:28.920Z,63.76
2022-10-26T15:45:32.803Z,63.99
2022-10-26T15:48:43.656Z,64.67
2022-10-26T15:51:32.890Z,64.85
2022-10-26T15:54:15.486Z,65.62
2022-10-26T15:57:04.582Z,65.12
2022-10-26T15:59:53.575Z,66.08
2022-10-26T16:02:38.036Z,66.26
2022-10-26T16:05:28.469Z,67.02
2022-10-26T16:08:21.510Z,67.31
2022-10-26T16:11:09.877Z,66.63
2022-10-26T16:13:52.683Z,65.95
2022-10-26T16:16:34.843Z,66.67
2022-10-26T16:19:30.324Z,66.55
2022-10-26T16:22:19.884Z,66.92
2022-10-26T16:25:02.569Z,66.80
2022-10-26T16:27:51.881Z,66.68
2022-10-26T16:30:34.589Z,67.22
2022-10-26T16:33:17.007Z,66.62
2022-10-26T16:36:12.563Z,66.44
2022-10-26T16:38:55.117Z,66.92
2022-10-26T16:41:43.500Z,66.41
2022-10-26T16:44:32.548Z,66.82
2022-10-26T16:50:17.575Z,67.24
2022-10-26T16:53:06.493Z,67.50
2022-10-26T16:55:56.028Z,67.70
2022-10-26T16:58:38.570Z,67.20
2022-10-26T17:01:29.012Z,67.29
2022-10-26T17:04:11.484Z,67.86
2022-10-26T17:07:00.853Z,67.24
2022-10-26T17:09:49.471Z,68.02
2022-10-26T17:12:31.982Z,67.30
2022-10-26T17:15:21.100Z,67.65
2022-10-26T17:18:03.846Z,67.48
2022-10-26T17:20:59.933Z,68.16
2022-10-26T17:23:42.004Z,67.98
2022-10-26T17:26:30.602Z,68.08
2022-10-26T17:29:12.946Z,68.36
2022-10-26T17:32:01.639Z,68.46
2022-10-26T17:34:43.945Z,68.84
2022-10-26T17:37:32.580Z,68.75
2022-10-26T17:40:22.514Z,68.88
2022-10-26T17:43:12.188Z,69.40
2022-10-26T17:45:54.499Z,69.25
2022-10-26T17:48:44.118Z,68.91
2022-10-26T17:51:28.610Z,68.80
2022-10-26T17:54:18.137Z,68.52
2022-10-26T17:56:59.632Z,69.63
2022-10-26T17:59:47.867Z,69.39
2022-10-26T18:02:29.679Z,69.47
2022-10-26T18:05:19.032Z,69.41
2022-10-26T18:08:00.577Z,70.05
2022-10-26T18:11:06.455Z,70.49
2022-10-26T18:13:55.585Z,70.26
2022-10-26T18:16:44.628Z,70.31
2022-10-26T18:19:27.401Z,70.54
2022-10-26T18:22:16.503Z,70.59
2022-10-26T18:25:04.905Z,71.00
2022-10-26T18:27:47.630Z,70.96
2022-10-26T18:30:37.065Z,70.58
2022-10-26T18:33:18.558Z,70.06
2022-10-26T18:36:27.516Z,70.14
2022-10-26T18:39:11.073Z,70.16
2022-10-26T18:41:59.536Z,70.42
2022-10-26T18:44:48.506Z,70.76
2022-10-26T18:47:38.571Z,70.77
2022-10-26T18:50:28.962Z,70.27
2022-10-26T18:53:14.398Z,70.79
2022-10-26T18:56:03.545Z,71.20
2022-10-26T18:58:59.429Z,71.59
2022-10-26T19:01:46.851Z,71.17
2022-10-26T19:04:36.004Z,71.22
2022-10-26T19:07:17.490Z,71.44
2022-10-26T19:10:13.575Z,71.66
2022-10-26T19:13:02.605Z,71.68
2022-10-26T19:15:45.087Z,71.74
2022-10-26T19:18:33.553Z,71.46
2022-10-26T19:21:20.690Z,71.58
2022-10-26T19:24:10.596Z,71.46
2022-10-26T19:26:55.106Z,71.53
2022-10-26T19:29:43.671Z,71.13
2022-10-26T19:32:26.047Z,71.65
2022-10-26T19:35:14.469Z,71.91
2022-10-26T19:38:03.551Z,71.83
2022-10-26T19:40:51.808Z,72.13
2022-10-26T19:43:37.489Z,71.66
2022-10-26T19:46:28.601Z,72.36
2022-10-26T19:49:13.525Z,72.06
2022-10-26T19:52:05.503Z,71.81
2022-10-26T19:54:47.838Z,71.52
2022-10-26T19:57:36.641Z,71.31
2022-10-26T20:00:18.878Z,71.46
2022-10-26T20:03:07.556Z,70.94
2022-10-26T20:05:57.457Z,70.19
2022-10-26T20:08:47.918Z,70.59
2022-10-26T20:11:45.620Z,70.73
2022-10-26T20:14:27.734Z,69.87
2022-10-26T20:17:16.470Z,70.00
2022-10-26T20:20:04.808Z,70.64
2022-10-26T20:22:46.747Z,70.37
2022-10-26T20:25:29.316Z,70.67
2022-10-26T20:28:20.618Z,70.84
2022-10-26T20:31:09.863Z,71.29
2022-10-26T20:33:52.533Z,70.92
2022-10-26T20:36:34.785Z,71.45
2022-10-26T20:39:23.483Z,71.70
2022-10-26T20:42:06.868Z,71.55
2022-10-26T20:44:58.450Z,71.57
2022-10-26T20:47:48.135Z,71.25
2022-10-26T20:50:32.550Z,71.32
2022-10-26T20:53:50.530Z,71.45
2022-10-26T20:56:33.843Z,71.36
2022-10-26T20:59:28.582Z,71.61
2022-10-26T21:02:10.990Z,71.48
2022-10-26T21:04:59.556Z,71.32
2022-10-26T21:07:48.604Z,70.98
2022-10-26T21:10:44.444Z,71.64
2022-10-26T21:13:33.596Z,71.29
2022-10-26T21:19:16.534Z,70.58
2022-10-26T21:21:58.841Z,71.43
2022-10-26T21:24:47.478Z,71.41
2022-10-26T21:27:36.511Z,71.31
2022-10-26T21:30:25.448Z,71.84
2022-10-26T21:33:14.554Z,71.73
2022-10-26T21:36:03.524Z,71.98
2022-10-26T21:38:46.869Z,71.35
2022-10-26T21:41:35.596Z,71.88
2022-10-26T21:44:40.526Z,72.03
2022-10-26T21:47:26.560Z,72.46
2022-10-26T21:50:15.540Z,72.12
2022-10-26T21:52:57.721Z,72.96
2022-10-26T21:55:46.541Z,72.60
2022-10-26T21:58:37.437Z,72.98
2022-10-26T22:01:31.223Z,72.63
2022-10-26T22:04:13.804Z,72.67
2022-10-26T22:07:02.534Z,72.48
2022-10-26T22:10:10.199Z,72.52
2022-10-26T22:12:59.447Z,72.67
2022-10-26T22:15:41.805Z,72.04
2022-10-26T22:18:30.454Z,72.36
2022-10-26T22:21:13.833Z,72.55
2022-10-26T22:24:03.423Z,72.77
2022-10-26T22:26:46.922Z,72.63
2022-10-26T22:29:35.574Z,72.50
2022-10-26T22:32:17.826Z,73.04
2022-10-26T22:35:28.510Z,73.32
2022-10-26T22:38:08.822Z,72.98
2022-10-26T22:41:04.546Z,72.50
2022-10-26T22:43:46.855Z,72.78
2022-10-26T22:46:36.546Z,72.98
2022-10-26T22:49:26.506Z,72.61
2022-10-26T22:52:14.855Z,72.49
2022-10-26T22:54:57.531Z,72.36
2022-10-26T22:57:45.832Z,73.06
2022-10-26T23:00:28.437Z,74.09
2022-10-26T23:03:10.759Z,73.42
2022-10-26T23:06:05.558Z,73.18
2022-10-26T23:08:48.049Z,73.55
2022-10-26T23:11:38.544Z,74.18
2022-10-26T23:14:26.803Z,74.65
2022-10-26T23:17:11.561Z,73.88
2022-10-26T23:19:53.727Z,73.98
2022-10-26T23:22:42.414Z,73.94
2022-10-26T23:25:38.868Z,73.36
2022-10-26T23:28:26.800Z,73.09
2022-10-26T23:31:09.595Z,73.17
2022-10-26T23:33:58.813Z,73.54
2022-10-26T23:36:40.593Z,73.03
2022-10-26T23:39:22.684Z,72.79
2022-10-26T23:42:11.517Z,72.76
2022-10-26T23:45:00.443Z,72.90
2022-10-26T23:47:49.708Z,73.16
2022-10-26T23:50:31.725Z,73.46
2022-10-26T23:53:20.544Z,73.45
2022-10-26T23:56:09.461Z,73.33
2022-10-26T23:58:51.856Z,73.53
